»·PEaware :: FFT422 KLAS-KLAX

FFT422 :: KLAS-KLAX

FLIGHT INFORMATION

Flight Status: Arrived
Operator:
Frontier Airlines
More flights by this operator :: More flights under this callsign
Pilot: Chris C. (20435)
Aircraft: AIRBUS A319
(A319)
More flights by this aircraft type
Origin: KLAS McCarran Intl
United States
Destination: KLAX Los Angeles Intl
United States
More flights between these airports :: More routes between these airports
Route: +BOACH8 RIKII SHTNR ANJLL4
File this flight plan on PilotEdge
Remarks:
Altitude:
(Current/Filed)
32,000ft
Speed:
(Current/Filed)
430kts
Departed: 26-Sep-18 11:43 AM
Arrived: 26-Sep-18 12:23 PM
Distance/Time
Traveled:
205nm/0:40
Distance/Time
To Go:
Arrived

Flight Plot

Page will automatically refresh every two minutes.

Flight plan parsing failed; only flown route is shown


Map Options




Map Legend


Flown Route
Filed Route
Departure Airport
Arrival Airport
Navaid (VOR, NDB)
Fix

Horizontal Profiles

Position Reports

Time Latitude Longitude Heading Altitude Ground
Speed
26-Sep-18 11:09 36.080098 -115.134955 319 2190ft 0kts
26-Sep-18 11:10 36.080098 -115.134955 319 2190ft 0kts
26-Sep-18 11:11 36.080098 -115.134955 319 2190ft 0kts
26-Sep-18 11:12 36.080098 -115.134955 319 2190ft 0kts
26-Sep-18 11:13 36.080098 -115.134955 319 2190ft 0kts
26-Sep-18 11:14 36.080088 -115.134945 319 2190ft 0kts
26-Sep-18 11:15 36.080088 -115.134945 319 2190ft 0kts
26-Sep-18 11:16 36.080088 -115.134945 319 2190ft 0kts
26-Sep-18 11:17 36.080088 -115.134945 319 2190ft 0kts
26-Sep-18 11:18 36.080088 -115.134945 319 2190ft 0kts
26-Sep-18 11:19 36.080088 -115.134945 319 2190ft 0kts
26-Sep-18 11:20 36.080088 -115.134945 319 2190ft 0kts
26-Sep-18 11:21 36.080088 -115.134945 319 2190ft 0kts
26-Sep-18 11:22 36.080088 -115.134945 319 2190ft 0kts
26-Sep-18 11:23 36.080088 -115.134945 319 2190ft 0kts
26-Sep-18 11:24 36.080088 -115.134945 319 2190ft 0kts
26-Sep-18 11:25 36.080088 -115.134945 319 2190ft 0kts
26-Sep-18 11:26 36.080088 -115.134945 319 2190ft 0kts
26-Sep-18 11:27 36.080088 -115.134945 319 2190ft 0kts
26-Sep-18 11:28 36.080088 -115.134945 319 2190ft 0kts
26-Sep-18 11:29 36.080088 -115.134945 319 2190ft 0kts
26-Sep-18 11:30 36.080088 -115.134945 319 2190ft 0kts
26-Sep-18 11:31 36.080088 -115.134945 319 2190ft 0kts
26-Sep-18 11:32 36.080088 -115.134945 319 2190ft 0kts
26-Sep-18 11:33 36.080088 -115.134945 319 2190ft 0kts
26-Sep-18 11:34 36.080088 -115.134945 319 2190ft 0kts
26-Sep-18 11:35 36.080088 -115.134945 319 2190ft 0kts
26-Sep-18 11:36 36.080088 -115.134945 319 2190ft 0kts
26-Sep-18 11:37 36.079791 -115.134644 334 2190ft 2kts
26-Sep-18 11:38 36.079285 -115.134729 44 2190ft 0kts
26-Sep-18 11:39 36.079238 -115.134792 46 2190ft 0kts
26-Sep-18 11:40 36.079238 -115.134792 46 2190ft 0kts
26-Sep-18 11:41 36.079238 -115.134792 46 2190ft 0kts
26-Sep-18 11:42 36.079187 -115.134014 120 2190ft 17kts
26-Sep-18 11:43 36.078250 -115.125437 91 2190ft 28kts
26-Sep-18 11:44 36.076433 -115.122485 271 2190ft 37kts
26-Sep-18 11:45 36.076506 -115.173582 271 3398ft 210kts
26-Sep-18 11:46 36.063231 -115.255411 222 6124ft 284kts
26-Sep-18 11:47 35.990682 -115.293162 200 6999ft 285kts
26-Sep-18 11:48 35.913142 -115.308614 185 8489ft 293kts
26-Sep-18 11:49 35.829728 -115.312157 174 11470ft 335kts
26-Sep-18 11:50 35.728238 -115.300510 176 13702ft 381kts
26-Sep-18 11:51 35.621810 -115.297000 184 16533ft 393kts
26-Sep-18 11:52 35.511593 -115.303525 195 19080ft 401kts
26-Sep-18 11:53 35.413536 -115.368767 213 21269ft 409kts
26-Sep-18 11:54 35.314423 -115.440718 213 23251ft 421kts
26-Sep-18 11:55 35.212660 -115.514378 213 25024ft 432kts
26-Sep-18 11:56 35.111501 -115.595027 227 26516ft 440kts
26-Sep-18 11:57 35.027027 -115.702850 227 27955ft 450kts
26-Sep-18 11:58 34.940806 -115.812729 227 29200ft 460kts
26-Sep-18 11:59 34.853553 -115.923544 227 30811ft 457kts
26-Sep-18 12:00 34.767263 -116.032806 228 32115ft 451kts
26-Sep-18 12:01 34.681295 -116.142384 228 32140ft 451kts
26-Sep-18 12:02 34.599544 -116.246210 228 32107ft 451kts
26-Sep-18 12:03 34.513049 -116.355701 228 32145ft 452kts
26-Sep-18 12:04 34.427128 -116.465341 232 30253ft 450kts
26-Sep-18 12:05 34.367832 -116.596277 245 27800ft 435kts
26-Sep-18 12:06 34.317819 -116.718060 246 26635ft 398kts
26-Sep-18 12:07 34.271177 -116.834232 246 24705ft 385kts
26-Sep-18 12:08 34.225105 -116.948361 246 22666ft 373kts
26-Sep-18 12:09 34.189617 -117.062723 254 20672ft 359kts
26-Sep-18 12:10 34.159014 -117.175372 254 18703ft 349kts
26-Sep-18 12:11 34.128981 -117.284445 254 16621ft 344kts
26-Sep-18 12:12 34.099555 -117.393171 255 14494ft 339kts
26-Sep-18 12:13 34.072711 -117.499044 252 12828ft 320kts
26-Sep-18 12:14 34.040045 -117.593538 249 11209ft 301kts
26-Sep-18 12:15 34.009571 -117.683366 255 10067ft 277kts
26-Sep-18 12:16 33.999819 -117.778466 261 9980ft 292kts
26-Sep-18 12:17 33.990188 -117.877140 261 9952ft 301kts
26-Sep-18 12:18 33.980443 -117.976219 262 9779ft 281kts
26-Sep-18 12:19 33.971403 -118.061001 261 7983ft 244kts
26-Sep-18 12:20 33.960558 -118.140613 261 5349ft 234kts
26-Sep-18 12:21 33.953151 -118.215137 260 3242ft 210kts
26-Sep-18 12:22 33.947976 -118.273699 261 2185ft 155kts
26-Sep-18 12:23 33.943156 -118.321464 264 1262ft 141kts
26-Sep-18 12:24 33.938840 -118.367676 262 410ft 138kts
26-Sep-18 12:25 33.935731 -118.401681 280 136ft 39kts
26-Sep-18 12:26 33.936217 -118.404053 272 136ft 1kts
26-Sep-18 12:27 33.935950 -118.408018 283 136ft 19kts
26-Sep-18 12:28 33.938573 -118.410063 265 136ft 14kts
26-Sep-18 12:29 33.942214 -118.412139 352 136ft 22kts
26-Sep-18 12:30 33.947320 -118.410910 83 136ft 21kts
26-Sep-18 12:31 33.947200 -118.408446 142 136ft 3kts
26-Sep-18 12:32 33.947004 -118.408256 140 136ft 0kts
26-Sep-18 12:33 33.947004 -118.408256 140 136ft 0kts
26-Sep-18 12:34 33.947004 -118.408256 140 136ft 0kts

Navigation Log

Ident Type
Flight plan parsing failed, navigation log unavailable